createdAt,value
2022-09-24T00:01:43.347Z,21.20
2022-09-24T00:04:14.734Z,21.19
2022-09-24T00:06:47.326Z,21.19
2022-09-24T00:09:21.986Z,21.17
2022-09-24T00:11:53.882Z,21.16
2022-09-24T00:14:24.725Z,21.15
2022-09-24T00:16:55.490Z,21.16
2022-09-24T00:19:26.312Z,21.16
2022-09-24T00:21:57.082Z,21.15
2022-09-24T00:24:45.177Z,21.15
2022-09-24T00:27:16.111Z,21.14
2022-09-24T00:29:46.904Z,21.13
2022-09-24T00:32:17.821Z,21.12
2022-09-24T00:34:48.526Z,21.12
2022-09-24T00:37:20.290Z,21.12
2022-09-24T00:39:50.917Z,21.11
2022-09-24T00:42:23.011Z,21.12
2022-09-24T00:44:56.617Z,21.12
2022-09-24T00:47:32.374Z,21.12
2022-09-24T00:50:12.202Z,21.10
2022-09-24T00:52:44.305Z,21.13
2022-09-24T00:55:14.262Z,21.08
2022-09-24T00:57:46.226Z,21.11
2022-09-24T01:00:18.058Z,21.12
2022-09-24T01:02:52.220Z,21.13
2022-09-24T01:05:22.873Z,21.13
2022-09-24T01:07:53.601Z,21.12
2022-09-24T01:10:51.143Z,21.11
2022-09-24T01:13:45.093Z,21.11
2022-09-24T01:16:24.309Z,21.10
2022-09-24T01:19:03.440Z,21.10
2022-09-24T01:21:41.163Z,21.11
2022-09-24T01:24:34.224Z,21.11
2022-09-24T01:27:12.539Z,21.11
2022-09-24T01:29:52.464Z,21.12
2022-09-24T01:32:32.421Z,21.12
2022-09-24T01:35:10.024Z,21.13
2022-09-24T01:37:45.674Z,21.13
2022-09-24T01:40:18.703Z,21.14
2022-09-24T01:42:51.056Z,21.15
2022-09-24T01:45:22.996Z,21.14
2022-09-24T01:47:53.747Z,21.14
2022-09-24T01:50:29.657Z,21.15
2022-09-24T01:53:06.141Z,21.14
2022-09-24T01:55:43.481Z,21.14
2022-09-24T01:58:19.348Z,21.13
2022-09-24T02:00:55.713Z,21.13
2022-09-24T02:03:30.858Z,21.14
2022-09-24T02:06:05.748Z,21.13
2022-09-24T02:08:42.046Z,21.13
2022-09-24T02:11:16.082Z,21.12
2022-09-24T02:13:52.198Z,21.11
2022-09-24T02:16:28.958Z,21.11
2022-09-24T02:19:02.594Z,21.11
2022-09-24T02:21:37.110Z,21.13
2022-09-24T02:24:18.059Z,21.11
2022-09-24T02:26:49.218Z,21.11
2022-09-24T02:29:20.148Z,21.10
2022-09-24T02:31:53.885Z,21.09
2022-09-24T02:34:26.844Z,21.07
2022-09-24T02:37:00.327Z,21.04
2022-09-24T02:39:31.292Z,21.06
2022-09-24T02:42:03.372Z,21.06
2022-09-24T02:44:34.258Z,21.07
2022-09-24T02:47:06.691Z,21.07
2022-09-24T02:49:38.060Z,21.07
2022-09-24T02:52:10.109Z,21.07
2022-09-24T02:54:42.649Z,21.08
2022-09-24T02:57:13.800Z,21.08
2022-09-24T02:59:44.661Z,21.08
2022-09-24T03:02:15.669Z,21.08
2022-09-24T03:04:47.365Z,21.08
2022-09-24T03:07:18.391Z,21.09
2022-09-24T03:09:49.095Z,21.08
2022-09-24T03:12:19.750Z,21.07
2022-09-24T03:14:50.725Z,21.07
2022-09-24T03:17:21.609Z,21.08
2022-09-24T03:19:52.306Z,21.07
2022-09-24T03:22:23.248Z,21.06
2022-09-24T03:24:54.074Z,21.05
2022-09-24T03:27:24.925Z,21.05
2022-09-24T03:30:13.519Z,21.04
2022-09-24T03:32:44.207Z,21.03
2022-09-24T03:35:15.865Z,21.02
2022-09-24T03:37:49.156Z,21.03
2022-09-24T03:40:20.169Z,21.03
2022-09-24T03:42:50.944Z,21.04
2022-09-24T03:45:21.681Z,21.03
2022-09-24T03:47:52.306Z,21.03
2022-09-24T03:50:23.037Z,21.02
2022-09-24T03:52:53.795Z,21.01
2022-09-24T03:55:24.430Z,21.00
2022-09-24T03:57:55.073Z,21.00
2022-09-24T04:00:25.989Z,21.00
2022-09-24T04:02:56.882Z,20.99
2022-09-24T04:05:29.140Z,20.99
2022-09-24T04:08:00.084Z,20.97
2022-09-24T04:10:30.905Z,21.00
2022-09-24T04:13:01.566Z,21.00
2022-09-24T04:15:32.789Z,21.00
2022-09-24T04:18:03.725Z,20.99
2022-09-24T04:20:34.881Z,20.99
2022-09-24T04:23:06.436Z,20.99
2022-09-24T04:25:37.481Z,21.00
2022-09-24T04:28:09.752Z,20.99
2022-09-24T04:30:40.604Z,20.99
2022-09-24T04:33:12.157Z,20.98
2022-09-24T04:35:42.887Z,20.97
2022-09-24T04:38:13.747Z,20.97
2022-09-24T04:40:45.488Z,20.95
2022-09-24T04:43:16.957Z,20.97
2022-09-24T04:45:48.395Z,20.95
2022-09-24T04:48:19.033Z,20.94
2022-09-24T04:50:49.770Z,20.94
2022-09-24T04:53:21.058Z,20.93
2022-09-24T04:55:51.750Z,20.94
2022-09-24T04:58:22.371Z,20.95
2022-09-24T05:00:53.437Z,20.95
2022-09-24T05:03:24.107Z,20.94
2022-09-24T05:05:55.633Z,20.94
2022-09-24T05:08:26.472Z,20.93
2022-09-24T05:10:57.187Z,20.94
2022-09-24T05:13:28.488Z,20.93
2022-09-24T05:16:01.251Z,20.92
2022-09-24T05:18:32.167Z,20.91
2022-09-24T05:21:02.836Z,20.91
2022-09-24T05:23:33.559Z,20.92
2022-09-24T05:26:22.002Z,20.93
2022-09-24T05:28:53.734Z,20.91
2022-09-24T05:31:24.671Z,20.90
2022-09-24T05:33:55.646Z,20.88
2022-09-24T05:36:27.205Z,20.89
2022-09-24T05:38:58.236Z,20.89
2022-09-24T05:41:29.051Z,20.90
2022-09-24T05:43:59.769Z,20.89
2022-09-24T05:46:30.696Z,20.89
2022-09-24T05:49:01.772Z,20.89
2022-09-24T05:51:32.577Z,20.88
2022-09-24T05:54:03.748Z,20.88
2022-09-24T05:56:34.640Z,20.88
2022-09-24T05:59:05.753Z,20.87
2022-09-24T06:01:36.690Z,20.86
2022-09-24T06:04:09.279Z,20.85
2022-09-24T06:06:40.491Z,20.87
2022-09-24T06:09:11.321Z,20.87
2022-09-24T06:11:42.367Z,20.87
2022-09-24T06:14:13.494Z,20.88
2022-09-24T06:16:44.330Z,20.89
2022-09-24T06:19:15.068Z,20.88
2022-09-24T06:21:45.751Z,20.88
2022-09-24T06:24:16.490Z,20.89
2022-09-24T06:26:47.174Z,20.88
2022-09-24T06:29:18.019Z,20.87
2022-09-24T06:31:49.911Z,20.87
2022-09-24T06:34:20.726Z,20.87
2022-09-24T06:36:54.772Z,20.88
2022-09-24T06:39:27.929Z,20.89
2022-09-24T06:41:58.623Z,20.88
2022-09-24T06:44:29.422Z,20.89
2022-09-24T06:47:00.758Z,20.88
2022-09-24T06:49:34.288Z,20.89
2022-09-24T06:52:06.390Z,20.89
2022-09-24T06:54:37.608Z,20.89
2022-09-24T06:57:10.391Z,20.90
2022-09-24T06:59:41.405Z,20.90
2022-09-24T07:02:12.805Z,20.90
2022-09-24T07:04:43.801Z,20.90
2022-09-24T07:07:33.798Z,20.89
2022-09-24T07:10:06.671Z,20.90
2022-09-24T07:12:38.560Z,20.91
2022-09-24T07:15:11.630Z,20.93
2022-09-24T07:17:42.362Z,20.94
2022-09-24T07:20:13.327Z,20.94
2022-09-24T07:22:44.388Z,20.96
2022-09-24T07:25:15.261Z,20.98
2022-09-24T07:27:45.978Z,21.00
2022-09-24T07:30:17.125Z,21.04
2022-09-24T07:32:48.530Z,21.08
2022-09-24T07:35:21.249Z,21.09
2022-09-24T07:37:57.295Z,21.10
2022-09-24T07:40:28.434Z,21.08
2022-09-24T07:43:00.137Z,21.06
2022-09-24T07:45:32.551Z,21.04
2022-09-24T07:48:06.134Z,21.02
2022-09-24T07:50:39.865Z,20.99
2022-09-24T07:53:11.416Z,20.96
2022-09-24T07:55:42.633Z,20.90
2022-09-24T07:58:16.651Z,20.91
2022-09-24T08:00:47.504Z,20.87
2022-09-24T08:03:18.248Z,20.84
2022-09-24T08:05:49.345Z,20.82
2022-09-24T08:08:20.857Z,20.83
2022-09-24T08:10:51.884Z,20.84
2022-09-24T08:13:27.349Z,20.84
2022-09-24T08:16:00.613Z,20.85
2022-09-24T08:18:33.326Z,20.90
2022-09-24T08:21:07.227Z,20.93
2022-09-24T08:23:38.228Z,20.97
2022-09-24T08:26:10.319Z,20.98
2022-09-24T08:28:43.346Z,20.99
2022-09-24T08:31:16.335Z,21.03
2022-09-24T08:33:50.914Z,21.07
2022-09-24T08:36:21.577Z,21.06
2022-09-24T08:38:55.027Z,21.03
2022-09-24T08:41:45.564Z,21.01
2022-09-24T08:44:41.897Z,20.97
2022-09-24T08:47:26.351Z,20.95
2022-09-24T08:50:05.503Z,20.96
2022-09-24T08:52:50.239Z,20.97
2022-09-24T08:55:30.074Z,20.99
2022-09-24T08:58:04.350Z,21.01
2022-09-24T09:00:41.739Z,21.00
2022-09-24T09:03:18.705Z,21.02
2022-09-24T09:05:57.860Z,21.04
2022-09-24T09:09:01.798Z,21.08
2022-09-24T09:11:33.807Z,21.11
2022-09-24T09:14:12.325Z,21.13
2022-09-24T09:16:51.571Z,21.13
2022-09-24T09:19:27.719Z,21.15
2022-09-24T09:22:02.798Z,21.18
2022-09-24T09:24:42.960Z,21.18
2022-09-24T09:27:17.320Z,21.19
2022-09-24T09:29:52.256Z,21.19
2022-09-24T09:32:38.488Z,21.20
2022-09-24T09:35:19.649Z,21.24
2022-09-24T09:37:57.281Z,21.29
2022-09-24T09:40:35.601Z,21.31
2022-09-24T09:43:12.080Z,21.34
2022-09-24T09:45:53.675Z,21.36
2022-09-24T09:48:27.024Z,21.38
2022-09-24T09:51:04.619Z,21.40
2022-09-24T09:53:35.865Z,21.42
2022-09-24T09:56:09.273Z,21.44
2022-09-24T09:58:45.782Z,21.44
2022-09-24T10:01:18.670Z,21.44
2022-09-24T10:03:52.154Z,21.46
2022-09-24T10:06:26.360Z,21.47
2022-09-24T10:09:07.586Z,21.45
2022-09-24T10:11:38.231Z,21.47
2022-09-24T10:14:13.565Z,21.49
2022-09-24T10:16:47.004Z,21.50
2022-09-24T10:19:23.598Z,21.52
2022-09-24T10:21:57.566Z,21.54
2022-09-24T10:24:29.602Z,21.55
2022-09-24T10:27:00.651Z,21.58
2022-09-24T10:29:53.046Z,21.61
2022-09-24T10:32:26.919Z,21.62
2022-09-24T10:35:02.610Z,21.63
2022-09-24T10:37:33.548Z,21.65
2022-09-24T10:40:15.487Z,21.67
2022-09-24T10:42:55.895Z,21.68
2022-09-24T10:45:35.418Z,21.69
2022-09-24T10:48:15.866Z,21.71
2022-09-24T10:50:55.465Z,21.73
2022-09-24T10:53:39.781Z,21.75
2022-09-24T10:56:22.964Z,21.74
2022-09-24T10:59:13.927Z,21.72
2022-09-24T11:01:52.991Z,21.72
2022-09-24T11:04:42.522Z,21.74
2022-09-24T11:07:44.187Z,21.76
2022-09-24T11:10:27.285Z,21.80
2022-09-24T11:13:11.722Z,21.82
2022-09-24T11:16:01.980Z,21.85
2022-09-24T11:18:46.150Z,21.90
2022-09-24T11:21:32.534Z,21.94
2022-09-24T11:24:27.479Z,21.97
2022-09-24T11:27:09.790Z,21.99
2022-09-24T11:30:08.765Z,22.04
2022-09-24T11:32:49.495Z,22.10
2022-09-24T11:35:45.182Z,22.13
2022-09-24T11:38:28.503Z,22.17
2022-09-24T11:41:17.079Z,22.20
2022-09-24T11:44:04.647Z,22.24
2022-09-24T11:46:48.408Z,22.28
2022-09-24T11:49:35.124Z,22.31
2022-09-24T11:52:13.269Z,22.35
2022-09-24T11:54:52.007Z,22.36
2022-09-24T11:57:26.519Z,22.37
2022-09-24T12:00:05.330Z,22.39
2022-09-24T12:02:39.033Z,22.39
2022-09-24T12:05:16.344Z,22.39
2022-09-24T12:07:50.780Z,22.39
2022-09-24T12:10:38.740Z,22.42
2022-09-24T12:13:19.831Z,22.44
2022-09-24T12:15:56.453Z,22.48
2022-09-24T12:18:30.350Z,22.50
2022-09-24T12:21:07.211Z,22.52
2022-09-24T12:23:44.377Z,22.55
2022-09-24T12:26:18.179Z,22.58
2022-09-24T12:29:15.397Z,22.60
2022-09-24T12:32:13.667Z,22.62
2022-09-24T12:34:52.053Z,22.65
2022-09-24T12:37:26.592Z,22.67
2022-09-24T12:40:03.793Z,22.70
2022-09-24T12:42:40.289Z,22.71
2022-09-24T12:45:20.036Z,22.75
2022-09-24T12:47:51.055Z,22.78
2022-09-24T12:50:27.343Z,22.79
2022-09-24T12:52:58.619Z,22.82
2022-09-24T12:55:31.368Z,22.83
2022-09-24T12:58:06.150Z,22.85
2022-09-24T13:00:41.255Z,22.87
2022-09-24T13:03:33.013Z,22.89
2022-09-24T13:06:05.458Z,22.92
2022-09-24T13:08:43.769Z,22.95
2022-09-24T13:11:30.786Z,22.97
2022-09-24T13:14:19.316Z,22.97
2022-09-24T13:16:53.033Z,22.98
2022-09-24T13:19:35.583Z,22.99
2022-09-24T13:22:07.967Z,23.00
2022-09-24T13:24:50.214Z,23.02
2022-09-24T13:27:38.396Z,23.04
2022-09-24T13:30:19.673Z,23.06
2022-09-24T13:32:57.119Z,23.07
2022-09-24T13:35:31.690Z,23.10
2022-09-24T13:38:09.286Z,23.11
2022-09-24T13:40:46.027Z,23.10
2022-09-24T13:43:21.295Z,23.11
2022-09-24T13:45:52.604Z,23.11
2022-09-24T13:48:31.621Z,23.11
2022-09-24T13:51:04.477Z,23.12
2022-09-24T13:53:39.003Z,23.10
2022-09-24T13:56:15.785Z,23.03
2022-09-24T13:58:46.893Z,22.96
2022-09-24T14:01:20.783Z,22.91
2022-09-24T14:04:01.211Z,22.87
2022-09-24T14:06:38.749Z,22.87
2022-09-24T14:09:26.499Z,22.87
2022-09-24T14:11:59.696Z,22.86
2022-09-24T14:14:32.323Z,22.86
2022-09-24T14:17:16.828Z,22.82
2022-09-24T14:19:48.891Z,22.74
2022-09-24T14:22:24.819Z,22.70
2022-09-24T14:25:00.297Z,22.67
2022-09-24T14:27:33.493Z,22.64
2022-09-24T14:30:18.510Z,22.61
2022-09-24T14:32:55.421Z,22.62
2022-09-24T14:35:34.212Z,22.64
2022-09-24T14:38:09.034Z,22.64
2022-09-24T14:40:45.538Z,22.65
2022-09-24T14:43:24.243Z,22.69
2022-09-24T14:46:02.321Z,22.71
2022-09-24T14:48:34.810Z,22.71
2022-09-24T14:51:05.942Z,22.73
2022-09-24T14:53:39.854Z,22.75
2022-09-24T14:56:22.362Z,22.76
2022-09-24T14:58:53.607Z,22.76
2022-09-24T15:01:30.513Z,22.77
2022-09-24T15:04:04.367Z,22.77
2022-09-24T15:06:36.914Z,22.78
2022-09-24T15:09:19.291Z,22.81
2022-09-24T15:11:50.513Z,22.82
2022-09-24T15:14:33.047Z,22.83
2022-09-24T15:17:23.416Z,22.85
2022-09-24T15:19:56.495Z,22.84
2022-09-24T15:22:28.175Z,22.82
2022-09-24T15:25:02.444Z,22.85
2022-09-24T15:27:35.564Z,22.86
2022-09-24T15:30:11.521Z,22.84
2022-09-24T15:32:42.670Z,22.92
2022-09-24T15:35:17.107Z,22.97
2022-09-24T15:37:48.682Z,23.00
2022-09-24T15:40:26.539Z,23.00
2022-09-24T15:42:57.376Z,22.98
2022-09-24T15:45:28.449Z,22.96
2022-09-24T15:47:59.085Z,22.95
2022-09-24T15:50:30.576Z,22.93
2022-09-24T15:53:03.574Z,22.92
2022-09-24T15:55:36.342Z,22.92
2022-09-24T15:58:19.086Z,22.92
2022-09-24T16:00:50.653Z,22.92
2022-09-24T16:03:25.689Z,22.90
2022-09-24T16:05:57.796Z,22.88
2022-09-24T16:08:29.320Z,22.89
2022-09-24T16:11:00.156Z,22.88
2022-09-24T16:13:31.554Z,22.88
2022-09-24T16:16:05.497Z,22.87
2022-09-24T16:18:39.860Z,22.86
2022-09-24T16:21:11.391Z,22.86
2022-09-24T16:23:42.364Z,22.83
2022-09-24T16:26:13.176Z,22.81
2022-09-24T16:28:43.870Z,22.81
2022-09-24T16:31:14.846Z,22.79
2022-09-24T16:33:45.884Z,22.77
2022-09-24T16:36:16.848Z,22.75
2022-09-24T16:38:47.582Z,22.71
2022-09-24T16:41:18.312Z,22.70
2022-09-24T16:43:49.060Z,22.69
2022-09-24T16:46:21.026Z,22.68
2022-09-24T16:48:53.430Z,22.67
2022-09-24T16:51:24.345Z,22.65
2022-09-24T16:53:58.010Z,22.66
2022-09-24T16:56:27.298Z,22.64
2022-09-24T16:58:59.264Z,22.60
2022-09-24T17:01:30.184Z,22.61
2022-09-24T17:04:01.787Z,22.59
2022-09-24T17:06:34.304Z,22.62
2022-09-24T17:09:23.380Z,22.75
2022-09-24T17:11:54.309Z,22.94
2022-09-24T17:14:26.055Z,23.08
2022-09-24T17:16:57.037Z,23.22
2022-09-24T17:19:28.256Z,23.36
2022-09-24T17:21:59.124Z,23.48
2022-09-24T17:24:30.396Z,23.61
2022-09-24T17:27:01.602Z,23.73
2022-09-24T17:29:32.376Z,23.84
2022-09-24T17:32:03.671Z,23.95
2022-09-24T17:34:34.930Z,24.04
2022-09-24T17:37:06.184Z,24.14
2022-09-24T17:39:37.087Z,24.16
2022-09-24T17:42:08.023Z,24.16
2022-09-24T17:44:38.823Z,24.14
2022-09-24T17:47:09.782Z,24.10
2022-09-24T17:49:40.525Z,24.07
2022-09-24T17:52:13.668Z,24.03
2022-09-24T17:54:44.951Z,24.00
2022-09-24T17:57:15.802Z,23.97
2022-09-24T17:59:46.615Z,23.94
2022-09-24T18:02:17.474Z,23.92
2022-09-24T18:04:48.501Z,23.91
2022-09-24T18:07:19.642Z,23.90
2022-09-24T18:09:52.453Z,23.86
2022-09-24T18:12:23.569Z,23.84
2022-09-24T18:14:54.414Z,23.82
2022-09-24T18:17:25.566Z,23.80
2022-09-24T18:19:56.299Z,23.78
2022-09-24T18:22:27.503Z,23.76
2022-09-24T18:25:01.870Z,23.74
2022-09-24T18:27:36.389Z,23.73
2022-09-24T18:30:11.539Z,23.71
2022-09-24T18:32:45.510Z,23.65
2022-09-24T18:35:16.299Z,23.59
2022-09-24T18:37:47.536Z,23.55
2022-09-24T18:40:18.524Z,23.51
2022-09-24T18:42:50.442Z,23.46
2022-09-24T18:45:24.286Z,23.42
2022-09-24T18:47:55.716Z,23.38
2022-09-24T18:50:28.368Z,23.36
2022-09-24T18:52:59.499Z,23.36
2022-09-24T18:55:31.227Z,23.37
2022-09-24T18:58:02.586Z,23.39
2022-09-24T19:00:53.985Z,23.40
2022-09-24T19:03:25.591Z,23.40
2022-09-24T19:05:58.154Z,23.40
2022-09-24T19:08:32.312Z,23.39
2022-09-24T19:11:07.766Z,23.39
2022-09-24T19:13:39.740Z,23.38
2022-09-24T19:16:12.924Z,23.35
2022-09-24T19:18:44.269Z,23.38
2022-09-24T19:21:15.804Z,23.38
2022-09-24T19:23:48.098Z,23.37
2022-09-24T19:26:21.438Z,23.37
2022-09-24T19:28:53.460Z,23.37
2022-09-24T19:31:26.190Z,23.36
2022-09-24T19:33:57.670Z,23.36
2022-09-24T19:36:28.554Z,23.35
2022-09-24T19:39:01.603Z,23.34
2022-09-24T19:41:32.437Z,23.34
2022-09-24T19:44:08.482Z,23.34
2022-09-24T19:46:41.096Z,23.33
2022-09-24T19:49:12.041Z,23.32
2022-09-24T19:51:43.103Z,23.31
2022-09-24T19:54:13.975Z,23.29
2022-09-24T19:56:44.883Z,23.28
2022-09-24T19:59:16.530Z,23.28
2022-09-24T20:01:47.683Z,23.28
2022-09-24T20:04:20.523Z,23.27
2022-09-24T20:06:51.414Z,23.23
2022-09-24T20:09:22.487Z,23.24
2022-09-24T20:11:53.506Z,23.25
2022-09-24T20:14:24.322Z,23.24
2022-09-24T20:16:55.100Z,23.26
2022-09-24T20:19:26.333Z,23.25
2022-09-24T20:21:59.058Z,23.25
2022-09-24T20:24:29.964Z,23.23
2022-09-24T20:27:18.402Z,23.22
2022-09-24T20:29:49.425Z,23.23
2022-09-24T20:32:20.389Z,23.25
2022-09-24T20:34:51.742Z,23.23
2022-09-24T20:37:22.684Z,23.22
2022-09-24T20:39:53.525Z,23.21
2022-09-24T20:42:24.980Z,23.20
2022-09-24T20:44:56.224Z,23.20
2022-09-24T20:47:27.855Z,23.22
2022-09-24T20:49:59.234Z,23.23
2022-09-24T20:52:30.181Z,23.24
2022-09-24T20:55:00.921Z,23.23
2022-09-24T20:57:32.988Z,23.26
2022-09-24T21:00:05.477Z,23.26
2022-09-24T21:02:41.155Z,23.27
2022-09-24T21:05:13.035Z,23.25
2022-09-24T21:07:44.058Z,23.26
2022-09-24T21:10:15.584Z,23.26
2022-09-24T21:12:50.904Z,23.25
2022-09-24T21:15:21.984Z,23.24
2022-09-24T21:18:18.280Z,23.22
2022-09-24T21:20:44.474Z,23.21
2022-09-24T21:23:16.097Z,23.19
2022-09-24T21:25:54.548Z,23.19
2022-09-24T21:28:25.950Z,23.17
2022-09-24T21:31:03.564Z,23.15
2022-09-24T21:33:35.414Z,23.14
2022-09-24T21:36:08.331Z,23.11
2022-09-24T21:38:39.441Z,23.09
2022-09-24T21:41:10.284Z,23.06
2022-09-24T21:43:41.950Z,23.05
2022-09-24T21:46:14.088Z,23.03
2022-09-24T21:48:44.985Z,23.01
2022-09-24T21:51:19.440Z,22.99
2022-09-24T21:53:51.223Z,22.99
2022-09-24T21:56:23.071Z,22.96
2022-09-24T21:58:55.832Z,22.95
2022-09-24T22:01:28.391Z,22.95
2022-09-24T22:04:00.992Z,22.96
2022-09-24T22:06:33.012Z,22.96
2022-09-24T22:09:09.100Z,22.95
2022-09-24T22:11:40.115Z,22.94
2022-09-24T22:14:11.918Z,22.94
2022-09-24T22:16:42.948Z,22.95
2022-09-24T22:19:14.179Z,22.94
2022-09-24T22:21:45.268Z,22.93
2022-09-24T22:24:16.032Z,22.93
2022-09-24T22:26:47.313Z,22.92
2022-09-24T22:29:18.000Z,22.91
2022-09-24T22:31:48.921Z,22.88
2022-09-24T22:34:37.395Z,22.87
2022-09-24T22:37:09.175Z,22.86
2022-09-24T22:39:39.813Z,22.85
2022-09-24T22:42:10.462Z,22.84
2022-09-24T22:44:41.200Z,22.84
2022-09-24T22:47:11.795Z,22.82
2022-09-24T22:49:42.388Z,22.82
2022-09-24T22:52:13.106Z,22.80
2022-09-24T22:54:43.716Z,22.83
2022-09-24T22:57:14.606Z,22.81
2022-09-24T22:59:45.205Z,22.80
2022-09-24T23:02:15.954Z,22.79
2022-09-24T23:04:46.750Z,22.78
2022-09-24T23:07:17.814Z,22.78
2022-09-24T23:09:48.681Z,22.78
2022-09-24T23:12:19.622Z,22.77
2022-09-24T23:14:53.144Z,22.76
2022-09-24T23:17:23.999Z,22.72
2022-09-24T23:19:55.019Z,22.75
2022-09-24T23:22:25.855Z,22.74
2022-09-24T23:24:56.502Z,22.76
2022-09-24T23:27:27.530Z,22.76
2022-09-24T23:29:58.166Z,22.77
2022-09-24T23:32:29.006Z,22.75
2022-09-24T23:34:59.648Z,22.74
2022-09-24T23:37:31.372Z,22.71
2022-09-24T23:40:02.509Z,22.72
2022-09-24T23:42:33.170Z,22.73
2022-09-24T23:45:03.901Z,22.76
2022-09-24T23:47:36.308Z,22.78
2022-09-24T23:50:08.827Z,22.77
2022-09-24T23:52:39.425Z,22.76
2022-09-24T23:55:11.738Z,22.75
2022-09-24T23:57:42.526Z,22.76
